Humboldt, Illinois
Current Conditions -  °F | °C
As of 3:07 PM on Thursday 27 Nov 2014 (Local Time) from KMTO Reporting Station
Overcast Overcast  
Wind Chill: 15°   Ceiling: 3600
Heat Index: 27°   Visibility: 10mi
Dew Point: 21°   Wind: 16mph
Humidity: 78%   Direction: 280°W
Pressure: 30.4"   Gusts: NA
Location:  39.6°N, 88.32°W
Report Text: KMTO 272107Z AUTO 28014KT 10SM FEW012 SCT024 OVC036 M03/M06 A3040 RMK AO2 T10281061
Loading
Personal Weather Stations






























Interactive Weather Map New forecast layout! Learn more

10-Day Weather Forecast

Advertisements
Track Severe Weather on mobile